sensor_id;sensor_type;location;lat;lon;timestamp;P1;durP1;ratioP1;P2;durP2;ratioP2
44995;SDS011;30729;49.486;10.792;2023-04-10T00:00:43;17.00;;;9.50;;
44995;SDS011;30729;49.486;10.792;2023-04-10T00:03:10;17.85;;;10.00;;
44995;SDS011;30729;49.486;10.792;2023-04-10T00:05:35;17.48;;;9.40;;
44995;SDS011;30729;49.486;10.792;2023-04-10T00:08:00;16.33;;;9.77;;
44995;SDS011;30729;49.486;10.792;2023-04-10T00:10:27;16.83;;;9.57;;
44995;SDS011;30729;49.486;10.792;2023-04-10T00:12:54;16.92;;;9.95;;
44995;SDS011;30729;49.486;10.792;2023-04-10T00:15:20;15.07;;;8.95;;
44995;SDS011;30729;49.486;10.792;2023-04-10T00:17:45;15.07;;;9.68;;
44995;SDS011;30729;49.486;10.792;2023-04-10T00:20:10;15.77;;;9.23;;
44995;SDS011;30729;49.486;10.792;2023-04-10T00:22:36;17.27;;;9.68;;
44995;SDS011;30729;49.486;10.792;2023-04-10T00:25:01;14.93;;;9.32;;
44995;SDS011;30729;49.486;10.792;2023-04-10T00:27:26;16.90;;;10.07;;
44995;SDS011;30729;49.486;10.792;2023-04-10T00:29:51;18.88;;;10.25;;
44995;SDS011;30729;49.486;10.792;2023-04-10T00:32:16;19.23;;;11.50;;
44995;SDS011;30729;49.486;10.792;2023-04-10T00:34:41;20.92;;;12.07;;
44995;SDS011;30729;49.486;10.792;2023-04-10T00:37:07;21.25;;;13.75;;
44995;SDS011;30729;49.486;10.792;2023-04-10T00:39:32;24.25;;;13.43;;
44995;SDS011;30729;49.486;10.792;2023-04-10T00:41:57;20.67;;;12.55;;
44995;SDS011;30729;49.486;10.792;2023-04-10T00:44:22;20.00;;;12.27;;
44995;SDS011;30729;49.486;10.792;2023-04-10T00:46:47;18.70;;;11.32;;
44995;SDS011;30729;49.486;10.792;2023-04-10T00:49:13;20.00;;;11.65;;
44995;SDS011;30729;49.486;10.792;2023-04-10T00:51:38;18.23;;;11.13;;
44995;SDS011;30729;49.486;10.792;2023-04-10T00:54:03;20.60;;;11.75;;
44995;SDS011;30729;49.486;10.792;2023-04-10T00:56:31;21.02;;;11.50;;
44995;SDS011;30729;49.486;10.792;2023-04-10T00:58:57;19.02;;;10.75;;
44995;SDS011;30729;49.486;10.792;2023-04-10T01:01:22;21.17;;;12.03;;
44995;SDS011;30729;49.486;10.792;2023-04-10T01:03:47;19.02;;;11.23;;
44995;SDS011;30729;49.486;10.792;2023-04-10T01:08:41;18.38;;;11.68;;
44995;SDS011;30729;49.486;10.792;2023-04-10T01:11:12;21.48;;;12.15;;
44995;SDS011;30729;49.486;10.792;2023-04-10T01:13:47;19.33;;;11.75;;
44995;SDS011;30729;49.486;10.792;2023-04-10T01:19:24;21.73;;;14.00;;
44995;SDS011;30729;49.486;10.792;2023-04-10T01:21:52;20.73;;;12.82;;
44995;SDS011;30729;49.486;10.792;2023-04-10T01:26:59;21.67;;;12.25;;
44995;SDS011;30729;49.486;10.792;2023-04-10T01:29:28;20.35;;;11.75;;
44995;SDS011;30729;49.486;10.792;2023-04-10T01:32:00;20.73;;;12.18;;
44995;SDS011;30729;49.486;10.792;2023-04-10T01:34:27;18.52;;;11.05;;
44995;SDS011;30729;49.486;10.792;2023-04-10T01:36:57;22.77;;;12.50;;
44995;SDS011;30729;49.486;10.792;2023-04-10T01:39:23;21.27;;;12.32;;
44995;SDS011;30729;49.486;10.792;2023-04-10T01:41:50;21.90;;;12.65;;
44995;SDS011;30729;49.486;10.792;2023-04-10T01:44:16;20.20;;;11.73;;
44995;SDS011;30729;49.486;10.792;2023-04-10T01:46:42;21.35;;;12.38;;
44995;SDS011;30729;49.486;10.792;2023-04-10T01:49:08;20.98;;;11.77;;
44995;SDS011;30729;49.486;10.792;2023-04-10T01:51:34;20.90;;;12.73;;
44995;SDS011;30729;49.486;10.792;2023-04-10T01:53:59;21.35;;;12.40;;
44995;SDS011;30729;49.486;10.792;2023-04-10T01:56:25;21.90;;;13.07;;
44995;SDS011;30729;49.486;10.792;2023-04-10T01:58:50;24.08;;;12.85;;
44995;SDS011;30729;49.486;10.792;2023-04-10T02:01:19;20.67;;;12.50;;
44995;SDS011;30729;49.486;10.792;2023-04-10T02:03:45;21.50;;;12.05;;
44995;SDS011;30729;49.486;10.792;2023-04-10T02:06:13;23.60;;;12.80;;
44995;SDS011;30729;49.486;10.792;2023-04-10T02:08:41;22.38;;;12.75;;
44995;SDS011;30729;49.486;10.792;2023-04-10T02:11:17;18.75;;;11.57;;
44995;SDS011;30729;49.486;10.792;2023-04-10T02:13:45;22.25;;;13.15;;
44995;SDS011;30729;49.486;10.792;2023-04-10T02:16:11;24.45;;;13.40;;
44995;SDS011;30729;49.486;10.792;2023-04-10T02:18:38;22.23;;;12.85;;
44995;SDS011;30729;49.486;10.792;2023-04-10T02:21:04;22.25;;;12.02;;
44995;SDS011;30729;49.486;10.792;2023-04-10T02:23:31;19.42;;;11.40;;
44995;SDS011;30729;49.486;10.792;2023-04-10T02:25:56;19.50;;;11.38;;
44995;SDS011;30729;49.486;10.792;2023-04-10T02:28:22;20.90;;;12.05;;
44995;SDS011;30729;49.486;10.792;2023-04-10T02:30:47;18.92;;;11.60;;
44995;SDS011;30729;49.486;10.792;2023-04-10T02:33:12;19.90;;;10.77;;
44995;SDS011;30729;49.486;10.792;2023-04-10T02:35:37;20.52;;;11.55;;
44995;SDS011;30729;49.486;10.792;2023-04-10T02:38:03;20.88;;;11.38;;
44995;SDS011;30729;49.486;10.792;2023-04-10T02:40:28;20.33;;;11.57;;
44995;SDS011;30729;49.486;10.792;2023-04-10T02:42:53;22.30;;;12.43;;
44995;SDS011;30729;49.486;10.792;2023-04-10T02:45:18;21.45;;;12.35;;
44995;SDS011;30729;49.486;10.792;2023-04-10T02:47:43;20.70;;;11.38;;
44995;SDS011;30729;49.486;10.792;2023-04-10T02:50:08;22.13;;;12.67;;
44995;SDS011;30729;49.486;10.792;2023-04-10T02:52:34;20.38;;;11.48;;
44995;SDS011;30729;49.486;10.792;2023-04-10T02:54:59;19.73;;;11.30;;
44995;SDS011;30729;49.486;10.792;2023-04-10T02:57:25;19.73;;;12.65;;
44995;SDS011;30729;49.486;10.792;2023-04-10T02:59:51;21.83;;;11.90;;
44995;SDS011;30729;49.486;10.792;2023-04-10T03:02:16;20.70;;;11.82;;
44995;SDS011;30729;49.486;10.792;2023-04-10T03:04:41;22.20;;;11.88;;
44995;SDS011;30729;49.486;10.792;2023-04-10T03:07:07;20.75;;;11.85;;
44995;SDS011;30729;49.486;10.792;2023-04-10T03:09:32;22.95;;;12.75;;
44995;SDS011;30729;49.486;10.792;2023-04-10T03:11:57;23.85;;;12.35;;
44995;SDS011;30729;49.486;10.792;2023-04-10T03:14:22;20.52;;;12.27;;
44995;SDS011;30729;49.486;10.792;2023-04-10T03:16:48;19.88;;;11.73;;
44995;SDS011;30729;49.486;10.792;2023-04-10T03:19:14;19.67;;;12.23;;
44995;SDS011;30729;49.486;10.792;2023-04-10T03:21:39;20.70;;;11.55;;
44995;SDS011;30729;49.486;10.792;2023-04-10T03:24:04;22.90;;;12.95;;
44995;SDS011;30729;49.486;10.792;2023-04-10T03:26:30;19.50;;;11.07;;
44995;SDS011;30729;49.486;10.792;2023-04-10T03:28:55;22.05;;;12.07;;
44995;SDS011;30729;49.486;10.792;2023-04-10T03:31:20;19.67;;;11.23;;
44995;SDS011;30729;49.486;10.792;2023-04-10T03:33:46;21.33;;;12.38;;
44995;SDS011;30729;49.486;10.792;2023-04-10T03:36:11;22.83;;;12.65;;
44995;SDS011;30729;49.486;10.792;2023-04-10T03:38:36;20.30;;;12.35;;
44995;SDS011;30729;49.486;10.792;2023-04-10T03:41:01;18.27;;;11.25;;
44995;SDS011;30729;49.486;10.792;2023-04-10T03:43:26;22.13;;;11.75;;
44995;SDS011;30729;49.486;10.792;2023-04-10T03:45:53;21.75;;;12.63;;
44995;SDS011;30729;49.486;10.792;2023-04-10T03:48:18;20.70;;;12.03;;
44995;SDS011;30729;49.486;10.792;2023-04-10T03:50:43;20.58;;;11.57;;
44995;SDS011;30729;49.486;10.792;2023-04-10T03:53:08;19.92;;;11.65;;
44995;SDS011;30729;49.486;10.792;2023-04-10T03:55:33;20.58;;;12.30;;
44995;SDS011;30729;49.486;10.792;2023-04-10T03:57:59;20.00;;;11.25;;
44995;SDS011;30729;49.486;10.792;2023-04-10T04:00:24;19.08;;;10.88;;
44995;SDS011;30729;49.486;10.792;2023-04-10T04:02:51;23.73;;;13.70;;
44995;SDS011;30729;49.486;10.792;2023-04-10T04:05:16;23.13;;;12.65;;
44995;SDS011;30729;49.486;10.792;2023-04-10T04:07:42;20.48;;;11.90;;
44995;SDS011;30729;49.486;10.792;2023-04-10T04:10:07;24.75;;;12.63;;
44995;SDS011;30729;49.486;10.792;2023-04-10T04:12:32;23.75;;;12.20;;
44995;SDS011;30729;49.486;10.792;2023-04-10T04:14:57;21.83;;;11.93;;
44995;SDS011;30729;49.486;10.792;2023-04-10T04:17:22;21.23;;;12.83;;
44995;SDS011;30729;49.486;10.792;2023-04-10T04:19:47;23.45;;;12.55;;
44995;SDS011;30729;49.486;10.792;2023-04-10T04:22:13;23.50;;;13.27;;
44995;SDS011;30729;49.486;10.792;2023-04-10T04:24:39;21.58;;;11.55;;
44995;SDS011;30729;49.486;10.792;2023-04-10T04:27:04;23.73;;;12.65;;
44995;SDS011;30729;49.486;10.792;2023-04-10T04:29:29;21.50;;;12.23;;
44995;SDS011;30729;49.486;10.792;2023-04-10T04:31:55;23.27;;;12.88;;
44995;SDS011;30729;49.486;10.792;2023-04-10T04:34:20;27.90;;;15.93;;
44995;SDS011;30729;49.486;10.792;2023-04-10T04:36:45;23.00;;;13.93;;
44995;SDS011;30729;49.486;10.792;2023-04-10T04:39:10;26.77;;;14.93;;
44995;SDS011;30729;49.486;10.792;2023-04-10T04:41:35;22.08;;;13.73;;
44995;SDS011;30729;49.486;10.792;2023-04-10T04:44:01;25.98;;;14.68;;
44995;SDS011;30729;49.486;10.792;2023-04-10T04:46:26;25.77;;;14.27;;
44995;SDS011;30729;49.486;10.792;2023-04-10T04:48:51;22.20;;;13.30;;
44995;SDS011;30729;49.486;10.792;2023-04-10T04:51:16;25.77;;;13.88;;
44995;SDS011;30729;49.486;10.792;2023-04-10T04:53:41;22.23;;;12.25;;
44995;SDS011;30729;49.486;10.792;2023-04-10T04:56:07;22.50;;;13.63;;
44995;SDS011;30729;49.486;10.792;2023-04-10T04:58:32;25.02;;;12.88;;
44995;SDS011;30729;49.486;10.792;2023-04-10T05:00:57;23.08;;;13.27;;
44995;SDS011;30729;49.486;10.792;2023-04-10T05:03:22;23.48;;;13.90;;
44995;SDS011;30729;49.486;10.792;2023-04-10T05:05:48;20.45;;;12.63;;
44995;SDS011;30729;49.486;10.792;2023-04-10T05:08:13;24.63;;;13.23;;
44995;SDS011;30729;49.486;10.792;2023-04-10T05:10:38;21.35;;;13.27;;
44995;SDS011;30729;49.486;10.792;2023-04-10T05:13:03;23.70;;;13.63;;
44995;SDS011;30729;49.486;10.792;2023-04-10T05:15:28;24.58;;;13.70;;
44995;SDS011;30729;49.486;10.792;2023-04-10T05:17:53;26.50;;;13.95;;
44995;SDS011;30729;49.486;10.792;2023-04-10T05:20:19;26.63;;;15.35;;
44995;SDS011;30729;49.486;10.792;2023-04-10T05:22:45;27.85;;;14.57;;
44995;SDS011;30729;49.486;10.792;2023-04-10T05:25:11;24.50;;;14.27;;
44995;SDS011;30729;49.486;10.792;2023-04-10T05:27:36;24.30;;;13.65;;
44995;SDS011;30729;49.486;10.792;2023-04-10T05:30:01;24.98;;;13.70;;
44995;SDS011;30729;49.486;10.792;2023-04-10T05:32:27;24.15;;;13.52;;
44995;SDS011;30729;49.486;10.792;2023-04-10T05:34:53;26.30;;;14.25;;
44995;SDS011;30729;49.486;10.792;2023-04-10T05:37:18;25.05;;;13.48;;
44995;SDS011;30729;49.486;10.792;2023-04-10T05:39:43;23.58;;;12.45;;
44995;SDS011;30729;49.486;10.792;2023-04-10T05:42:08;23.52;;;13.32;;
44995;SDS011;30729;49.486;10.792;2023-04-10T05:44:33;23.65;;;13.25;;
44995;SDS011;30729;49.486;10.792;2023-04-10T05:46:58;23.35;;;13.00;;
44995;SDS011;30729;49.486;10.792;2023-04-10T05:49:24;22.45;;;12.30;;
44995;SDS011;30729;49.486;10.792;2023-04-10T05:51:49;24.60;;;13.40;;
44995;SDS011;30729;49.486;10.792;2023-04-10T05:54:15;22.98;;;12.77;;
44995;SDS011;30729;49.486;10.792;2023-04-10T05:56:41;21.73;;;12.98;;
44995;SDS011;30729;49.486;10.792;2023-04-10T05:59:06;21.90;;;13.13;;
44995;SDS011;30729;49.486;10.792;2023-04-10T06:01:31;24.42;;;13.63;;
44995;SDS011;30729;49.486;10.792;2023-04-10T06:03:56;26.83;;;15.33;;
44995;SDS011;30729;49.486;10.792;2023-04-10T06:06:22;25.88;;;14.15;;
44995;SDS011;30729;49.486;10.792;2023-04-10T06:08:49;23.85;;;13.98;;
44995;SDS011;30729;49.486;10.792;2023-04-10T06:11:14;24.48;;;14.07;;
44995;SDS011;30729;49.486;10.792;2023-04-10T06:13:40;24.75;;;13.40;;
44995;SDS011;30729;49.486;10.792;2023-04-10T06:16:05;27.52;;;14.77;;
44995;SDS011;30729;49.486;10.792;2023-04-10T06:18:30;24.52;;;14.25;;
44995;SDS011;30729;49.486;10.792;2023-04-10T06:20:55;23.25;;;13.35;;
44995;SDS011;30729;49.486;10.792;2023-04-10T06:23:24;24.33;;;13.00;;
44995;SDS011;30729;49.486;10.792;2023-04-10T06:25:49;23.95;;;12.90;;
44995;SDS011;30729;49.486;10.792;2023-04-10T06:28:14;22.60;;;13.73;;
44995;SDS011;30729;49.486;10.792;2023-04-10T06:30:39;26.15;;;13.85;;
44995;SDS011;30729;49.486;10.792;2023-04-10T06:33:05;24.83;;;14.02;;
44995;SDS011;30729;49.486;10.792;2023-04-10T06:35:30;24.38;;;13.70;;
44995;SDS011;30729;49.486;10.792;2023-04-10T06:37:55;21.52;;;12.73;;
44995;SDS011;30729;49.486;10.792;2023-04-10T06:40:20;23.37;;;13.47;;
44995;SDS011;30729;49.486;10.792;2023-04-10T06:42:45;24.40;;;14.10;;
44995;SDS011;30729;49.486;10.792;2023-04-10T06:45:10;24.65;;;13.98;;
44995;SDS011;30729;49.486;10.792;2023-04-10T06:47:36;23.80;;;12.73;;
44995;SDS011;30729;49.486;10.792;2023-04-10T06:50:01;22.98;;;13.18;;
44995;SDS011;30729;49.486;10.792;2023-04-10T06:52:26;27.73;;;14.20;;
44995;SDS011;30729;49.486;10.792;2023-04-10T06:54:52;24.75;;;13.80;;
44995;SDS011;30729;49.486;10.792;2023-04-10T06:57:17;23.20;;;13.20;;
44995;SDS011;30729;49.486;10.792;2023-04-10T06:59:43;22.80;;;13.07;;
44995;SDS011;30729;49.486;10.792;2023-04-10T07:02:08;25.05;;;12.82;;
44995;SDS011;30729;49.486;10.792;2023-04-10T07:04:33;24.15;;;13.98;;
44995;SDS011;30729;49.486;10.792;2023-04-10T07:06:58;23.83;;;13.50;;
44995;SDS011;30729;49.486;10.792;2023-04-10T07:09:28;22.70;;;13.35;;
44995;SDS011;30729;49.486;10.792;2023-04-10T07:11:53;23.92;;;13.02;;
44995;SDS011;30729;49.486;10.792;2023-04-10T07:14:18;21.20;;;12.02;;
44995;SDS011;30729;49.486;10.792;2023-04-10T07:16:43;23.55;;;13.60;;
44995;SDS011;30729;49.486;10.792;2023-04-10T07:19:09;23.20;;;13.93;;
44995;SDS011;30729;49.486;10.792;2023-04-10T07:21:34;21.98;;;13.20;;
44995;SDS011;30729;49.486;10.792;2023-04-10T07:23:59;22.77;;;13.47;;
44995;SDS011;30729;49.486;10.792;2023-04-10T07:26:25;21.30;;;12.90;;
44995;SDS011;30729;49.486;10.792;2023-04-10T07:28:50;21.58;;;13.20;;
44995;SDS011;30729;49.486;10.792;2023-04-10T07:31:15;24.10;;;13.57;;
44995;SDS011;30729;49.486;10.792;2023-04-10T07:33:42;19.92;;;11.80;;
44995;SDS011;30729;49.486;10.792;2023-04-10T07:36:07;22.65;;;13.50;;
44995;SDS011;30729;49.486;10.792;2023-04-10T07:38:32;23.23;;;13.75;;
44995;SDS011;30729;49.486;10.792;2023-04-10T07:40:58;21.97;;;12.63;;
44995;SDS011;30729;49.486;10.792;2023-04-10T07:43:23;20.55;;;11.60;;
44995;SDS011;30729;49.486;10.792;2023-04-10T07:45:48;18.52;;;11.38;;
44995;SDS011;30729;49.486;10.792;2023-04-10T07:48:14;21.30;;;11.82;;
44995;SDS011;30729;49.486;10.792;2023-04-10T07:50:39;18.02;;;10.27;;
44995;SDS011;30729;49.486;10.792;2023-04-10T07:53:04;16.95;;;10.40;;
44995;SDS011;30729;49.486;10.792;2023-04-10T07:55:36;16.35;;;9.77;;
44995;SDS011;30729;49.486;10.792;2023-04-10T07:58:01;17.50;;;10.27;;
44995;SDS011;30729;49.486;10.792;2023-04-10T08:00:26;16.60;;;9.73;;
44995;SDS011;30729;49.486;10.792;2023-04-10T08:02:51;16.83;;;10.43;;
44995;SDS011;30729;49.486;10.792;2023-04-10T08:05:16;15.60;;;9.50;;
44995;SDS011;30729;49.486;10.792;2023-04-10T08:07:42;15.10;;;8.75;;
44995;SDS011;30729;49.486;10.792;2023-04-10T08:10:07;15.43;;;9.52;;
44995;SDS011;30729;49.486;10.792;2023-04-10T08:12:32;15.93;;;9.57;;
44995;SDS011;30729;49.486;10.792;2023-04-10T08:14:58;16.38;;;9.73;;
44995;SDS011;30729;49.486;10.792;2023-04-10T08:17:23;14.80;;;9.07;;
44995;SDS011;30729;49.486;10.792;2023-04-10T08:19:48;15.88;;;9.10;;
44995;SDS011;30729;49.486;10.792;2023-04-10T08:22:13;17.73;;;10.38;;
44995;SDS011;30729;49.486;10.792;2023-04-10T08:24:38;15.50;;;9.38;;
44995;SDS011;30729;49.486;10.792;2023-04-10T08:27:04;15.18;;;8.90;;
44995;SDS011;30729;49.486;10.792;2023-04-10T08:29:29;17.40;;;9.38;;
44995;SDS011;30729;49.486;10.792;2023-04-10T08:31:54;15.77;;;9.32;;
44995;SDS011;30729;49.486;10.792;2023-04-10T08:34:20;16.77;;;10.00;;
44995;SDS011;30729;49.486;10.792;2023-04-10T08:36:48;15.93;;;9.93;;
44995;SDS011;30729;49.486;10.792;2023-04-10T08:39:13;15.52;;;9.10;;
44995;SDS011;30729;49.486;10.792;2023-04-10T08:41:39;15.55;;;9.48;;
44995;SDS011;30729;49.486;10.792;2023-04-10T08:44:05;16.65;;;9.98;;
44995;SDS011;30729;49.486;10.792;2023-04-10T08:46:30;17.40;;;8.77;;
44995;SDS011;30729;49.486;10.792;2023-04-10T08:49:01;16.58;;;9.98;;
44995;SDS011;30729;49.486;10.792;2023-04-10T08:51:41;17.55;;;9.80;;
44995;SDS011;30729;49.486;10.792;2023-04-10T08:54:10;15.98;;;9.48;;
44995;SDS011;30729;49.486;10.792;2023-04-10T08:56:38;16.23;;;9.63;;
44995;SDS011;30729;49.486;10.792;2023-04-10T08:59:05;15.45;;;9.73;;
44995;SDS011;30729;49.486;10.792;2023-04-10T09:01:31;15.40;;;8.77;;
44995;SDS011;30729;49.486;10.792;2023-04-10T09:03:58;16.52;;;9.52;;
44995;SDS011;30729;49.486;10.792;2023-04-10T09:06:23;16.43;;;9.57;;
44995;SDS011;30729;49.486;10.792;2023-04-10T09:08:48;14.73;;;8.50;;
44995;SDS011;30729;49.486;10.792;2023-04-10T09:11:14;15.45;;;9.05;;
44995;SDS011;30729;49.486;10.792;2023-04-10T09:13:40;15.77;;;9.77;;
44995;SDS011;30729;49.486;10.792;2023-04-10T09:16:05;13.45;;;9.07;;
44995;SDS011;30729;49.486;10.792;2023-04-10T09:21:12;14.82;;;8.68;;
44995;SDS011;30729;49.486;10.792;2023-04-10T09:23:37;13.50;;;7.85;;
44995;SDS011;30729;49.486;10.792;2023-04-10T09:28:54;12.25;;;7.28;;
44995;SDS011;30729;49.486;10.792;2023-04-10T09:34:19;13.38;;;7.32;;
44995;SDS011;30729;49.486;10.792;2023-04-10T09:36:56;12.77;;;7.43;;
44995;SDS011;30729;49.486;10.792;2023-04-10T09:39:29;15.77;;;8.55;;
44995;SDS011;30729;49.486;10.792;2023-04-10T09:44:31;13.82;;;7.22;;
44995;SDS011;30729;49.486;10.792;2023-04-10T09:46:57;12.82;;;7.05;;
44995;SDS011;30729;49.486;10.792;2023-04-10T09:49:22;12.48;;;7.72;;
44995;SDS011;30729;49.486;10.792;2023-04-10T09:51:47;13.05;;;7.35;;
44995;SDS011;30729;49.486;10.792;2023-04-10T09:54:13;12.63;;;7.63;;
44995;SDS011;30729;49.486;10.792;2023-04-10T09:56:38;14.37;;;7.17;;
44995;SDS011;30729;49.486;10.792;2023-04-10T09:59:04;12.57;;;7.78;;
44995;SDS011;30729;49.486;10.792;2023-04-10T10:01:30;11.40;;;7.20;;
44995;SDS011;30729;49.486;10.792;2023-04-10T10:04:00;11.85;;;6.65;;
44995;SDS011;30729;49.486;10.792;2023-04-10T10:06:25;11.27;;;6.72;;
44995;SDS011;30729;49.486;10.792;2023-04-10T10:08:51;12.45;;;6.85;;
44995;SDS011;30729;49.486;10.792;2023-04-10T10:11:18;11.55;;;6.60;;
44995;SDS011;30729;49.486;10.792;2023-04-10T10:13:48;11.70;;;6.82;;
44995;SDS011;30729;49.486;10.792;2023-04-10T10:16:15;9.80;;;5.95;;
44995;SDS011;30729;49.486;10.792;2023-04-10T10:21:17;11.57;;;6.93;;
44995;SDS011;30729;49.486;10.792;2023-04-10T10:23:43;11.23;;;6.38;;
44995;SDS011;30729;49.486;10.792;2023-04-10T10:26:09;10.65;;;6.05;;
44995;SDS011;30729;49.486;10.792;2023-04-10T10:28:35;11.02;;;5.57;;
44995;SDS011;30729;49.486;10.792;2023-04-10T10:31:04;9.85;;;5.65;;
44995;SDS011;30729;49.486;10.792;2023-04-10T10:33:29;10.80;;;6.50;;
44995;SDS011;30729;49.486;10.792;2023-04-10T10:35:58;10.07;;;6.05;;
44995;SDS011;30729;49.486;10.792;2023-04-10T10:38:24;9.77;;;5.53;;
44995;SDS011;30729;49.486;10.792;2023-04-10T10:43:54;10.45;;;5.72;;
44995;SDS011;30729;49.486;10.792;2023-04-10T10:46:34;10.23;;;6.10;;
44995;SDS011;30729;49.486;10.792;2023-04-10T10:49:00;10.65;;;6.15;;
44995;SDS011;30729;49.486;10.792;2023-04-10T10:54:32;9.53;;;5.20;;
44995;SDS011;30729;49.486;10.792;2023-04-10T10:56:58;10.50;;;6.10;;
44995;SDS011;30729;49.486;10.792;2023-04-10T11:02:16;8.07;;;5.22;;
44995;SDS011;30729;49.486;10.792;2023-04-10T11:04:42;8.55;;;5.25;;
44995;SDS011;30729;49.486;10.792;2023-04-10T11:07:10;9.52;;;4.88;;
44995;SDS011;30729;49.486;10.792;2023-04-10T11:12:11;8.77;;;4.80;;
44995;SDS011;30729;49.486;10.792;2023-04-10T11:14:36;8.97;;;5.17;;
44995;SDS011;30729;49.486;10.792;2023-04-10T11:17:01;9.52;;;5.20;;
44995;SDS011;30729;49.486;10.792;2023-04-10T11:19:27;9.60;;;5.30;;
44995;SDS011;30729;49.486;10.792;2023-04-10T11:22:05;9.02;;;5.13;;
44995;SDS011;30729;49.486;10.792;2023-04-10T11:24:50;8.25;;;4.88;;
44995;SDS011;30729;49.486;10.792;2023-04-10T11:30:00;7.80;;;4.35;;
44995;SDS011;30729;49.486;10.792;2023-04-10T11:32:27;8.10;;;4.43;;
44995;SDS011;30729;49.486;10.792;2023-04-10T11:35:04;7.82;;;3.97;;
44995;SDS011;30729;49.486;10.792;2023-04-10T11:37:30;7.65;;;4.18;;
44995;SDS011;30729;49.486;10.792;2023-04-10T11:40:04;11.80;;;4.43;;
44995;SDS011;30729;49.486;10.792;2023-04-10T11:42:29;8.18;;;4.47;;
44995;SDS011;30729;49.486;10.792;2023-04-10T11:44:55;7.18;;;4.10;;
44995;SDS011;30729;49.486;10.792;2023-04-10T11:47:21;7.20;;;3.88;;
44995;SDS011;30729;49.486;10.792;2023-04-10T11:49:46;7.50;;;4.23;;
44995;SDS011;30729;49.486;10.792;2023-04-10T11:52:23;8.13;;;3.80;;
44995;SDS011;30729;49.486;10.792;2023-04-10T11:54:48;7.72;;;4.30;;
44995;SDS011;30729;49.486;10.792;2023-04-10T11:57:13;7.50;;;4.20;;
44995;SDS011;30729;49.486;10.792;2023-04-10T11:59:39;8.25;;;4.30;;
44995;SDS011;30729;49.486;10.792;2023-04-10T12:04:33;7.03;;;3.53;;
44995;SDS011;30729;49.486;10.792;2023-04-10T12:06:58;7.68;;;4.32;;
44995;SDS011;30729;49.486;10.792;2023-04-10T12:09:24;7.00;;;3.65;;
44995;SDS011;30729;49.486;10.792;2023-04-10T12:11:55;6.68;;;3.40;;
44995;SDS011;30729;49.486;10.792;2023-04-10T12:14:27;7.65;;;3.85;;
44995;SDS011;30729;49.486;10.792;2023-04-10T12:16:53;7.28;;;4.07;;
44995;SDS011;30729;49.486;10.792;2023-04-10T12:19:18;5.60;;;3.20;;
44995;SDS011;30729;49.486;10.792;2023-04-10T12:21:44;7.90;;;3.80;;
44995;SDS011;30729;49.486;10.792;2023-04-10T12:24:10;6.53;;;3.58;;
44995;SDS011;30729;49.486;10.792;2023-04-10T12:26:36;5.97;;;2.97;;
44995;SDS011;30729;49.486;10.792;2023-04-10T12:29:01;6.63;;;3.37;;
44995;SDS011;30729;49.486;10.792;2023-04-10T12:31:28;5.43;;;2.92;;
44995;SDS011;30729;49.486;10.792;2023-04-10T12:33:53;6.18;;;3.40;;
44995;SDS011;30729;49.486;10.792;2023-04-10T12:36:26;5.82;;;2.95;;
44995;SDS011;30729;49.486;10.792;2023-04-10T12:38:53;4.97;;;2.63;;
44995;SDS011;30729;49.486;10.792;2023-04-10T12:41:20;5.47;;;2.53;;
44995;SDS011;30729;49.486;10.792;2023-04-10T12:43:46;6.45;;;3.28;;
44995;SDS011;30729;49.486;10.792;2023-04-10T12:46:21;6.28;;;3.20;;
44995;SDS011;30729;49.486;10.792;2023-04-10T12:48:46;5.45;;;2.92;;
44995;SDS011;30729;49.486;10.792;2023-04-10T12:51:11;6.22;;;2.97;;
44995;SDS011;30729;49.486;10.792;2023-04-10T12:53:43;5.40;;;2.67;;
44995;SDS011;30729;49.486;10.792;2023-04-10T12:56:08;5.35;;;2.83;;
44995;SDS011;30729;49.486;10.792;2023-04-10T12:58:33;5.65;;;3.10;;
44995;SDS011;30729;49.486;10.792;2023-04-10T13:01:03;4.68;;;2.33;;
44995;SDS011;30729;49.486;10.792;2023-04-10T13:03:29;6.40;;;3.20;;
44995;SDS011;30729;49.486;10.792;2023-04-10T13:05:54;5.65;;;3.10;;
44995;SDS011;30729;49.486;10.792;2023-04-10T13:08:20;5.82;;;3.08;;
44995;SDS011;30729;49.486;10.792;2023-04-10T13:10:46;5.55;;;2.72;;
44995;SDS011;30729;49.486;10.792;2023-04-10T13:13:11;6.40;;;3.50;;
44995;SDS011;30729;49.486;10.792;2023-04-10T13:15:37;6.47;;;3.38;;
44995;SDS011;30729;49.486;10.792;2023-04-10T13:18:03;6.25;;;3.13;;
44995;SDS011;30729;49.486;10.792;2023-04-10T13:20:30;6.55;;;3.33;;
44995;SDS011;30729;49.486;10.792;2023-04-10T13:22:56;5.50;;;3.10;;
44995;SDS011;30729;49.486;10.792;2023-04-10T13:25:21;6.70;;;3.30;;
44995;SDS011;30729;49.486;10.792;2023-04-10T13:27:47;7.03;;;3.78;;
44995;SDS011;30729;49.486;10.792;2023-04-10T13:30:12;6.40;;;3.70;;
44995;SDS011;30729;49.486;10.792;2023-04-10T13:32:37;6.32;;;3.50;;
44995;SDS011;30729;49.486;10.792;2023-04-10T13:35:02;6.97;;;3.65;;
44995;SDS011;30729;49.486;10.792;2023-04-10T13:37:28;7.05;;;3.58;;
44995;SDS011;30729;49.486;10.792;2023-04-10T13:39:53;6.72;;;3.80;;
44995;SDS011;30729;49.486;10.792;2023-04-10T13:42:18;6.88;;;3.90;;
44995;SDS011;30729;49.486;10.792;2023-04-10T13:44:43;6.20;;;3.33;;
44995;SDS011;30729;49.486;10.792;2023-04-10T13:47:09;6.70;;;3.67;;
44995;SDS011;30729;49.486;10.792;2023-04-10T13:49:34;6.90;;;3.28;;
44995;SDS011;30729;49.486;10.792;2023-04-10T13:51:59;7.10;;;3.63;;
44995;SDS011;30729;49.486;10.792;2023-04-10T13:54:25;8.40;;;3.90;;
44995;SDS011;30729;49.486;10.792;2023-04-10T13:56:50;5.70;;;3.13;;
44995;SDS011;30729;49.486;10.792;2023-04-10T13:59:15;6.25;;;3.17;;
44995;SDS011;30729;49.486;10.792;2023-04-10T14:01:40;6.00;;;3.13;;
44995;SDS011;30729;49.486;10.792;2023-04-10T14:04:06;6.20;;;3.40;;
44995;SDS011;30729;49.486;10.792;2023-04-10T14:06:31;6.80;;;3.58;;
44995;SDS011;30729;49.486;10.792;2023-04-10T14:08:56;5.88;;;3.20;;
44995;SDS011;30729;49.486;10.792;2023-04-10T14:11:21;7.00;;;3.60;;
44995;SDS011;30729;49.486;10.792;2023-04-10T14:13:47;8.38;;;3.60;;
44995;SDS011;30729;49.486;10.792;2023-04-10T14:16:12;6.75;;;3.53;;
44995;SDS011;30729;49.486;10.792;2023-04-10T14:18:38;6.50;;;3.65;;
44995;SDS011;30729;49.486;10.792;2023-04-10T14:21:03;6.57;;;3.53;;
44995;SDS011;30729;49.486;10.792;2023-04-10T14:23:28;6.65;;;3.53;;
44995;SDS011;30729;49.486;10.792;2023-04-10T14:25:53;7.63;;;3.73;;
44995;SDS011;30729;49.486;10.792;2023-04-10T14:28:18;6.35;;;3.53;;
44995;SDS011;30729;49.486;10.792;2023-04-10T14:30:44;6.47;;;3.80;;
44995;SDS011;30729;49.486;10.792;2023-04-10T14:33:09;7.57;;;3.40;;
44995;SDS011;30729;49.486;10.792;2023-04-10T14:35:34;7.60;;;3.67;;
44995;SDS011;30729;49.486;10.792;2023-04-10T14:38:00;6.57;;;2.97;;
44995;SDS011;30729;49.486;10.792;2023-04-10T14:40:26;8.38;;;3.47;;
44995;SDS011;30729;49.486;10.792;2023-04-10T14:42:51;7.23;;;3.63;;
44995;SDS011;30729;49.486;10.792;2023-04-10T14:45:17;6.78;;;3.58;;
44995;SDS011;30729;49.486;10.792;2023-04-10T14:47:42;6.40;;;3.20;;
44995;SDS011;30729;49.486;10.792;2023-04-10T14:50:07;6.78;;;3.70;;